createdAt,value
2022-07-28T00:03:19.239Z,1.55
2022-07-28T00:08:25.514Z,1.97
2022-07-28T00:13:32.083Z,1.65
2022-07-28T00:18:39.400Z,1.72
2022-07-28T00:23:46.017Z,1.83
2022-07-28T00:28:52.163Z,1.78
2022-07-28T00:33:58.377Z,1.76
2022-07-28T00:39:04.519Z,1.89
2022-07-28T00:44:11.491Z,1.68
2022-07-28T00:49:18.182Z,1.95
2022-07-28T00:54:24.431Z,1.94
2022-07-28T00:59:30.798Z,1.65
2022-07-28T01:04:42.458Z,1.74
2022-07-28T01:09:38.847Z,1.74
2022-07-28T01:14:45.029Z,1.76
2022-07-28T01:19:51.450Z,1.93
2022-07-28T01:24:58.022Z,1.92
2022-07-28T01:30:04.344Z,1.95
2022-07-28T01:35:10.594Z,1.74
2022-07-28T01:40:16.706Z,1.90
2022-07-28T01:45:25.306Z,1.97
2022-07-28T01:50:33.710Z,1.83
2022-07-28T01:55:40.239Z,1.78
2022-07-28T02:00:46.687Z,1.83
2022-07-28T02:05:52.894Z,1.84
2022-07-28T02:10:58.978Z,2.05
2022-07-28T02:16:05.553Z,1.79
2022-07-28T02:21:11.637Z,1.94
2022-07-28T02:26:18.096Z,1.72
2022-07-28T02:31:24.284Z,2.11
2022-07-28T02:36:30.678Z,2.03
2022-07-28T02:41:37.017Z,2.15
2022-07-28T02:46:43.400Z,2.04
2022-07-28T02:51:49.439Z,2.04
2022-07-28T02:56:55.697Z,2.30
2022-07-28T03:02:03.901Z,2.45
2022-07-28T03:07:10.937Z,2.23
2022-07-28T03:12:16.110Z,2.24
2022-07-28T03:17:22.761Z,2.62
2022-07-28T03:22:32.206Z,2.23
2022-07-28T03:27:39.613Z,2.40
2022-07-28T03:32:45.784Z,2.53
2022-07-28T03:37:55.835Z,2.66
2022-07-28T03:42:51.939Z,2.37
2022-07-28T03:47:59.227Z,2.28
2022-07-28T03:53:06.369Z,2.40
2022-07-28T03:58:12.902Z,2.52
2022-07-28T04:03:42.452Z,2.66
2022-07-28T04:08:26.801Z,2.59
2022-07-28T04:13:32.984Z,2.48
2022-07-28T04:18:39.479Z,2.43
2022-07-28T04:23:44.895Z,2.42
2022-07-28T04:28:51.122Z,2.21
2022-07-28T04:33:57.267Z,2.39
2022-07-28T04:39:03.590Z,2.34
2022-07-28T04:44:09.710Z,2.22
2022-07-28T04:49:16.262Z,2.37
2022-07-28T04:54:26.543Z,2.20
2022-07-28T04:59:28.405Z,2.17
2022-07-28T05:04:34.105Z,2.39
2022-07-28T05:09:39.836Z,2.42
2022-07-28T05:14:45.931Z,2.31
2022-07-28T05:19:53.310Z,2.76
2022-07-28T05:24:59.541Z,2.66
2022-07-28T05:30:05.814Z,2.51
2022-07-28T05:35:11.957Z,2.31
2022-07-28T05:40:18.407Z,2.30
2022-07-28T05:45:26.863Z,2.46
2022-07-28T05:50:34.326Z,2.41
2022-07-28T05:55:59.830Z,2.41
2022-07-28T06:00:47.343Z,2.83
2022-07-28T06:06:00.526Z,2.58
2022-07-28T06:11:00.078Z,2.36
2022-07-28T06:16:09.684Z,2.60
2022-07-28T06:21:11.925Z,2.39
2022-07-28T06:26:18.053Z,2.35
2022-07-28T06:31:24.670Z,2.18
2022-07-28T06:36:30.925Z,2.35
2022-07-28T06:41:37.267Z,2.17
2022-07-28T06:46:43.410Z,2.08
2022-07-28T06:51:49.574Z,2.02
2022-07-28T06:56:56.042Z,1.65
2022-07-28T07:02:01.893Z,1.74
2022-07-28T07:07:14.724Z,1.68
2022-07-28T07:12:13.969Z,1.55
2022-07-28T07:17:21.154Z,1.46
2022-07-28T07:22:27.307Z,1.40
2022-07-28T07:27:33.393Z,1.39
2022-07-28T07:32:39.687Z,1.24
2022-07-28T07:37:45.781Z,1.31
2022-07-28T07:42:52.432Z,1.33
2022-07-28T07:47:58.516Z,1.31
2022-07-28T07:53:04.758Z,1.22
2022-07-28T07:58:10.877Z,1.18
2022-07-28T08:03:17.162Z,1.33
2022-07-28T08:08:23.205Z,1.35
2022-07-28T08:13:29.430Z,1.41
2022-07-28T08:18:36.853Z,1.42
2022-07-28T08:23:44.121Z,1.03
2022-07-28T08:28:50.208Z,1.19
2022-07-28T08:33:57.567Z,1.13
2022-07-28T08:39:04.524Z,1.22
2022-07-28T08:44:12.328Z,1.05
2022-07-28T08:49:17.717Z,1.18
2022-07-28T08:54:23.829Z,1.25
2022-07-28T08:59:29.925Z,1.27
2022-07-28T09:04:36.363Z,1.02
2022-07-28T09:09:43.154Z,1.24
2022-07-28T09:14:50.629Z,1.29
2022-07-28T09:19:56.744Z,1.13
2022-07-28T09:25:03.024Z,1.22
2022-07-28T09:30:10.376Z,0.99
2022-07-28T09:35:16.569Z,1.29
2022-07-28T09:40:23.039Z,1.19
2022-07-28T09:45:29.281Z,1.48
2022-07-28T09:50:37.656Z,1.69
2022-07-28T09:55:45.173Z,1.34
2022-07-28T10:00:51.265Z,1.23
2022-07-28T10:05:58.334Z,1.18
2022-07-28T10:11:04.416Z,1.33
2022-07-28T10:16:10.707Z,1.44
2022-07-28T10:21:16.921Z,1.21
2022-07-28T10:26:23.103Z,1.11
2022-07-28T10:31:29.314Z,1.40
2022-07-28T10:36:35.490Z,1.07
2022-07-28T10:41:41.589Z,1.11
2022-07-28T10:46:48.223Z,1.04
2022-07-28T10:52:05.050Z,1.28
2022-07-28T10:57:00.444Z,1.10
2022-07-28T11:02:06.412Z,1.04
2022-07-28T11:07:12.514Z,1.06
2022-07-28T11:12:21.909Z,1.12
2022-07-28T11:17:33.522Z,1.03
2022-07-28T11:22:33.962Z,1.17
2022-07-28T11:27:45.153Z,0.98
2022-07-28T11:32:49.189Z,1.10
2022-07-28T11:37:55.356Z,0.85
2022-07-28T11:43:01.738Z,1.32
2022-07-28T11:48:07.417Z,1.26
2022-07-28T11:53:14.062Z,1.15
2022-07-28T11:58:22.560Z,1.55
2022-07-28T12:03:50.300Z,1.18
2022-07-28T12:08:34.223Z,1.14
2022-07-28T12:13:40.760Z,1.45
2022-07-28T12:18:47.308Z,1.11
2022-07-28T12:23:55.660Z,0.96
2022-07-28T12:29:02.044Z,0.95
2022-07-28T12:34:07.673Z,1.08
2022-07-28T12:39:13.924Z,1.01
2022-07-28T12:44:20.102Z,0.92
2022-07-28T12:49:26.452Z,0.98
2022-07-28T12:54:32.822Z,0.96
2022-07-28T12:59:39.134Z,0.94
2022-07-28T13:04:45.328Z,0.91
2022-07-28T13:09:51.639Z,0.98
2022-07-28T13:14:57.315Z,1.22
2022-07-28T13:20:03.473Z,0.94
2022-07-28T13:25:10.378Z,0.91
2022-07-28T13:30:16.601Z,0.95
2022-07-28T13:35:23.096Z,0.79
2022-07-28T13:40:29.314Z,1.02
2022-07-28T13:45:35.891Z,0.97
2022-07-28T13:50:41.561Z,1.09
2022-07-28T13:55:48.625Z,1.02
2022-07-28T14:00:55.130Z,1.09
2022-07-28T14:06:01.245Z,1.01
2022-07-28T14:11:07.895Z,1.11
2022-07-28T14:16:14.584Z,1.18
2022-07-28T14:21:19.533Z,1.16
2022-07-28T14:26:35.053Z,1.18
2022-07-28T14:31:31.554Z,1.30
2022-07-28T14:36:37.695Z,1.87
2022-07-28T14:41:44.695Z,1.01
2022-07-28T14:46:50.848Z,1.10
2022-07-28T14:51:57.129Z,1.01
2022-07-28T14:57:03.301Z,1.09
2022-07-28T15:02:09.856Z,1.22
2022-07-28T15:07:15.890Z,1.13
2022-07-28T15:12:22.491Z,1.24
2022-07-28T15:17:28.657Z,1.33
2022-07-28T15:22:35.242Z,1.19
2022-07-28T15:27:45.474Z,1.32
2022-07-28T15:32:57.060Z,1.16
2022-07-28T15:37:53.634Z,0.94
2022-07-28T15:43:00.319Z,1.15
2022-07-28T15:48:06.510Z,1.24
2022-07-28T15:53:13.040Z,1.41
2022-07-28T15:58:19.194Z,1.16
2022-07-28T16:03:25.469Z,1.05
2022-07-28T16:08:31.157Z,1.19
2022-07-28T16:13:37.672Z,1.16
2022-07-28T16:18:43.513Z,1.49
2022-07-28T16:23:49.973Z,1.30
2022-07-28T16:28:56.122Z,1.23
2022-07-28T16:34:02.577Z,1.31
2022-07-28T16:39:08.654Z,1.35
2022-07-28T16:44:15.690Z,1.15
2022-07-28T16:49:20.953Z,1.42
2022-07-28T16:54:27.641Z,1.27
2022-07-28T16:59:37.687Z,1.34
2022-07-28T17:04:39.938Z,1.40
2022-07-28T17:09:46.033Z,1.29
2022-07-28T17:14:52.273Z,1.21
2022-07-28T17:19:58.392Z,1.16
2022-07-28T17:25:06.919Z,1.36
2022-07-28T17:30:10.374Z,1.23
2022-07-28T17:35:31.846Z,1.23
2022-07-28T17:40:22.173Z,1.34
2022-07-28T17:45:31.814Z,1.67
2022-07-28T17:50:27.933Z,1.39
2022-07-28T17:55:57.615Z,1.42
2022-07-28T18:00:39.870Z,1.25
2022-07-28T18:05:46.477Z,1.18
2022-07-28T18:10:52.668Z,1.36
2022-07-28T18:15:58.964Z,1.19
2022-07-28T18:21:05.059Z,1.31
2022-07-28T18:26:11.383Z,1.21
2022-07-28T18:31:17.720Z,1.36
2022-07-28T18:36:23.923Z,1.27
2022-07-28T18:41:30.073Z,1.13
2022-07-28T18:46:36.299Z,1.13
2022-07-28T18:51:45.423Z,1.30
2022-07-28T18:56:48.337Z,0.99
2022-07-28T19:01:54.608Z,1.21
2022-07-28T19:07:00.766Z,1.15
2022-07-28T19:12:06.935Z,1.18
2022-07-28T19:17:13.168Z,1.24
2022-07-28T19:22:19.234Z,1.25
2022-07-28T19:27:25.779Z,1.28
2022-07-28T19:32:31.787Z,1.24
2022-07-28T19:37:38.434Z,1.33
2022-07-28T19:42:44.633Z,1.11
2022-07-28T19:47:50.946Z,1.43
2022-07-28T19:52:57.119Z,1.44
2022-07-28T19:58:03.347Z,1.42
2022-07-28T20:04:02.388Z,1.39
2022-07-28T20:08:15.394Z,1.42
2022-07-28T20:13:21.585Z,1.63
2022-07-28T20:18:28.241Z,1.33
2022-07-28T20:23:34.406Z,1.32
2022-07-28T20:28:40.583Z,1.37
2022-07-28T20:33:46.797Z,1.53
2022-07-28T20:38:53.126Z,1.63
2022-07-28T20:44:30.049Z,1.47
2022-07-28T20:49:05.958Z,1.88
2022-07-28T20:54:12.709Z,1.76
2022-07-28T20:59:18.157Z,1.84
2022-07-28T21:04:24.638Z,1.80
2022-07-28T21:09:30.968Z,1.74
2022-07-28T21:14:37.182Z,1.71
2022-07-28T21:19:43.417Z,1.98
2022-07-28T21:24:53.211Z,1.86
2022-07-28T21:34:59.690Z,1.86
2022-07-28T21:40:05.934Z,1.88
2022-07-28T21:45:12.118Z,1.92
2022-07-28T21:50:18.377Z,1.72
2022-07-28T21:55:24.895Z,1.78
2022-07-28T22:00:31.110Z,2.06
2022-07-28T22:05:37.223Z,1.98
2022-07-28T22:10:43.478Z,2.25
2022-07-28T22:15:49.744Z,1.90
2022-07-28T22:20:56.022Z,2.15
2022-07-28T22:26:02.182Z,2.08
2022-07-28T22:31:09.999Z,2.08
2022-07-28T22:36:14.575Z,2.32
2022-07-28T22:41:20.813Z,2.33
2022-07-28T22:46:27.035Z,2.04
2022-07-28T22:51:33.251Z,2.33
2022-07-28T22:56:39.456Z,2.27
2022-07-28T23:01:46.170Z,2.23
2022-07-28T23:06:52.353Z,2.25
2022-07-28T23:11:59.150Z,2.58
2022-07-28T23:17:05.334Z,2.11
2022-07-28T23:22:11.570Z,2.15
2022-07-28T23:27:17.823Z,2.28
2022-07-28T23:32:24.402Z,2.48
2022-07-28T23:37:30.920Z,2.21
2022-07-28T23:42:37.372Z,2.36
2022-07-28T23:47:43.546Z,2.27
2022-07-28T23:52:49.772Z,2.52
2022-07-28T23:57:56.758Z,2.50
